createdAt,value
2019-01-24T00:00:51.228Z,16.50
2019-01-24T00:01:51.170Z,16.50
2019-01-24T00:02:51.170Z,16.00
2019-01-24T00:03:51.141Z,15.50
2019-01-24T00:04:51.130Z,13.90
2019-01-24T00:05:51.122Z,15.60
2019-01-24T00:06:51.133Z,15.30
2019-01-24T00:07:51.135Z,16.30
2019-01-24T00:08:51.103Z,15.50
2019-01-24T00:09:51.083Z,14.40
2019-01-24T00:10:51.088Z,14.90
2019-01-24T00:11:51.055Z,14.60
2019-01-24T00:12:51.061Z,14.90
2019-01-24T00:13:51.072Z,15.20
2019-01-24T00:14:51.036Z,15.80
2019-01-24T00:15:51.026Z,14.30
2019-01-24T00:16:51.004Z,15.10
2019-01-24T00:17:51.000Z,16.50
2019-01-24T00:18:51.020Z,16.70
2019-01-24T00:19:50.984Z,14.80
2019-01-24T00:20:50.998Z,16.20
2019-01-24T00:21:50.967Z,14.90
2019-01-24T00:22:50.945Z,15.30
2019-01-24T00:23:50.980Z,16.60
2019-01-24T00:24:50.927Z,15.70
2019-01-24T00:25:50.905Z,15.70
2019-01-24T00:26:50.906Z,15.60
2019-01-24T00:27:50.909Z,14.70
2019-01-24T00:28:51.105Z,16.20
2019-01-24T00:29:50.880Z,14.80
2019-01-24T00:30:50.866Z,14.50
2019-01-24T00:31:50.856Z,15.90
2019-01-24T00:32:51.211Z,15.30
2019-01-24T00:33:50.841Z,16.10
2019-01-24T00:34:51.243Z,15.90
2019-01-24T00:35:50.816Z,15.30
2019-01-24T00:36:50.794Z,15.60
2019-01-24T00:37:50.790Z,15.70
2019-01-24T00:38:50.786Z,14.80
2019-01-24T00:39:50.806Z,16.50
2019-01-24T00:40:50.765Z,16.60
2019-01-24T00:41:50.759Z,15.80
2019-01-24T00:42:50.730Z,15.00
2019-01-24T00:43:50.717Z,16.10
2019-01-24T00:44:50.705Z,14.80
2019-01-24T00:45:50.715Z,15.90
2019-01-24T00:46:50.701Z,15.60
2019-01-24T00:47:50.686Z,16.20
2019-01-24T00:48:50.675Z,17.40
2019-01-24T00:49:50.684Z,16.10
2019-01-24T00:50:50.673Z,15.50
2019-01-24T00:51:50.644Z,16.70
2019-01-24T00:52:50.629Z,15.10
2019-01-24T00:53:50.635Z,15.80
2019-01-24T00:54:50.605Z,15.10
2019-01-24T00:55:50.618Z,15.80
2019-01-24T00:56:50.582Z,15.50
2019-01-24T00:57:50.569Z,15.60
2019-01-24T00:58:50.571Z,15.70
2019-01-24T00:59:50.561Z,15.20
2019-01-24T01:00:50.572Z,16.50
2019-01-24T01:01:50.537Z,15.60
2019-01-24T01:02:50.518Z,14.40
2019-01-24T01:03:50.504Z,14.90
2019-01-24T01:04:50.521Z,15.50
2019-01-24T01:05:50.519Z,14.90
2019-01-24T01:06:50.475Z,16.20
2019-01-24T01:07:50.473Z,16.30
2019-01-24T01:08:50.468Z,15.00
2019-01-24T01:09:50.438Z,15.40
2019-01-24T01:10:50.447Z,14.20
2019-01-24T01:11:50.458Z,14.90
2019-01-24T01:12:50.440Z,15.70
2019-01-24T01:13:50.426Z,15.10
2019-01-24T01:14:50.409Z,15.60
2019-01-24T01:15:50.374Z,15.50
2019-01-24T01:16:50.363Z,16.20
2019-01-24T01:17:50.372Z,15.80
2019-01-24T01:18:50.617Z,15.60
2019-01-24T01:19:50.343Z,16.70
2019-01-24T01:20:50.324Z,15.10
2019-01-24T01:21:50.316Z,16.70
2019-01-24T01:22:50.343Z,15.40
2019-01-24T01:23:50.311Z,15.20
2019-01-24T01:24:50.316Z,16.50
2019-01-24T01:25:50.286Z,15.20
2019-01-24T01:26:50.255Z,16.80
2019-01-24T01:27:50.255Z,14.60
2019-01-24T01:28:50.260Z,15.00
2019-01-24T01:29:50.240Z,16.40
2019-01-24T01:30:50.235Z,16.40
2019-01-24T01:31:50.221Z,15.20
2019-01-24T01:32:50.206Z,16.30
2019-01-24T01:33:50.213Z,15.70
2019-01-24T01:34:50.205Z,16.00
2019-01-24T01:35:50.182Z,14.80
2019-01-24T01:36:50.162Z,16.20
2019-01-24T01:37:50.156Z,15.20
2019-01-24T01:38:50.162Z,15.70
2019-01-24T01:39:50.143Z,15.10
2019-01-24T01:40:50.113Z,15.00
2019-01-24T01:41:50.120Z,16.60
2019-01-24T01:42:50.101Z,15.90
2019-01-24T01:43:50.109Z,16.10
2019-01-24T01:44:50.079Z,15.10
2019-01-24T01:45:50.072Z,15.90
2019-01-24T01:46:50.046Z,16.20
2019-01-24T01:47:50.038Z,16.40
2019-01-24T01:48:50.054Z,15.10
2019-01-24T01:49:50.034Z,16.30
2019-01-24T01:50:50.012Z,15.10
2019-01-24T01:51:50.003Z,15.30
2019-01-24T01:52:49.986Z,16.40
2019-01-24T01:53:49.967Z,15.10
2019-01-24T01:54:49.995Z,15.50
2019-01-24T01:55:49.986Z,15.00
2019-01-24T01:56:49.949Z,15.10
2019-01-24T01:57:49.941Z,16.00
2019-01-24T01:58:49.952Z,14.80
2019-01-24T01:59:49.908Z,15.60
2019-01-24T02:00:49.904Z,15.60
2019-01-24T02:01:49.892Z,15.60
2019-01-24T02:02:49.892Z,14.50
2019-01-24T02:03:49.901Z,15.70
2019-01-24T02:04:49.872Z,15.30
2019-01-24T02:05:49.851Z,15.00
2019-01-24T02:06:49.837Z,14.90
2019-01-24T02:07:49.821Z,15.70
2019-01-24T02:08:49.825Z,16.20
2019-01-24T02:09:49.833Z,15.50
2019-01-24T02:10:49.804Z,15.70
2019-01-24T02:11:49.782Z,17.50
2019-01-24T02:12:49.784Z,14.60
2019-01-24T02:13:49.788Z,16.10
2019-01-24T02:14:49.757Z,16.50
2019-01-24T02:15:49.743Z,14.80
2019-01-24T02:16:49.736Z,15.90
2019-01-24T02:17:49.725Z,16.20
2019-01-24T02:18:49.724Z,14.30
2019-01-24T02:19:49.692Z,15.20
2019-01-24T02:20:49.686Z,15.40
2019-01-24T02:21:49.675Z,15.60
2019-01-24T02:22:49.685Z,16.50
2019-01-24T02:23:49.698Z,14.30
2019-01-24T02:24:49.658Z,16.10
2019-01-24T02:25:49.630Z,14.70
2019-01-24T02:26:49.748Z,16.00
2019-01-24T02:27:49.617Z,15.20
2019-01-24T02:28:49.615Z,14.60
2019-01-24T02:29:49.591Z,15.10
2019-01-24T02:30:49.639Z,16.50
2019-01-24T02:31:49.570Z,15.60
2019-01-24T02:32:49.569Z,16.30
2019-01-24T02:33:49.581Z,15.60
2019-01-24T02:34:49.870Z,14.50
2019-01-24T02:35:49.532Z,15.30
2019-01-24T02:36:49.525Z,15.00
2019-01-24T02:37:49.512Z,15.30
2019-01-24T02:38:49.492Z,14.90
2019-01-24T02:39:49.511Z,15.40
2019-01-24T02:40:49.499Z,14.80
2019-01-24T02:41:49.486Z,14.70
2019-01-24T02:42:49.444Z,15.40
2019-01-24T02:43:49.484Z,15.30
2019-01-24T02:44:49.460Z,14.90
2019-01-24T02:45:49.429Z,14.20
2019-01-24T02:46:49.419Z,14.90
2019-01-24T02:47:49.422Z,14.60
2019-01-24T02:48:49.401Z,14.50
2019-01-24T02:49:49.409Z,15.50
2019-01-24T02:50:49.379Z,15.10
2019-01-24T02:51:49.350Z,14.50
2019-01-24T02:52:49.364Z,14.10
2019-01-24T02:53:49.338Z,15.00
2019-01-24T02:54:49.355Z,14.60
2019-01-24T02:55:49.318Z,15.50
2019-01-24T02:56:49.319Z,13.80
2019-01-24T02:57:49.322Z,13.80
2019-01-24T02:58:49.297Z,14.00
2019-01-24T02:59:49.304Z,14.90
2019-01-24T03:00:49.263Z,13.60
2019-01-24T03:01:49.260Z,13.20
2019-01-24T03:02:49.244Z,15.40
2019-01-24T03:03:49.238Z,15.10
2019-01-24T03:04:49.240Z,15.20
2019-01-24T03:05:49.206Z,13.90
2019-01-24T03:06:49.200Z,13.50
2019-01-24T03:07:49.187Z,13.90
2019-01-24T03:08:49.182Z,16.10
2019-01-24T03:09:49.202Z,15.10
2019-01-24T03:10:49.150Z,14.20
2019-01-24T03:11:49.161Z,15.30
2019-01-24T03:12:49.155Z,15.10
2019-01-24T03:13:49.141Z,15.20
2019-01-24T03:14:49.111Z,15.80
2019-01-24T03:15:49.130Z,13.80
2019-01-24T03:16:49.086Z,14.70
2019-01-24T03:17:49.120Z,14.30
2019-01-24T03:18:49.075Z,15.30
2019-01-24T03:19:49.066Z,14.50
2019-01-24T03:20:49.082Z,15.10
2019-01-24T03:21:49.047Z,15.60
2019-01-24T03:22:49.048Z,13.60
2019-01-24T03:23:49.013Z,15.40
2019-01-24T03:24:49.006Z,15.60
2019-01-24T03:25:48.992Z,14.40
2019-01-24T03:26:49.014Z,14.00
2019-01-24T03:27:48.985Z,15.60
2019-01-24T03:28:48.965Z,15.30
2019-01-24T03:29:48.961Z,15.40
2019-01-24T03:30:48.947Z,14.10
2019-01-24T03:31:48.974Z,15.90
2019-01-24T03:32:48.938Z,16.20
2019-01-24T03:33:48.921Z,15.30
2019-01-24T03:34:48.904Z,15.20
2019-01-24T03:35:48.893Z,15.50
2019-01-24T03:36:48.874Z,15.10
2019-01-24T03:37:48.880Z,14.60
2019-01-24T03:38:48.856Z,15.60
2019-01-24T03:39:48.851Z,15.50
2019-01-24T03:40:48.835Z,15.70
2019-01-24T03:41:48.839Z,15.50
2019-01-24T03:42:48.845Z,15.40
2019-01-24T03:43:48.799Z,15.40
2019-01-24T03:44:48.799Z,14.90
2019-01-24T03:45:48.800Z,15.00
2019-01-24T03:46:48.777Z,15.20
2019-01-24T03:47:48.760Z,14.50
2019-01-24T03:48:48.764Z,16.00
2019-01-24T03:49:48.734Z,15.30
2019-01-24T03:50:48.735Z,14.60
2019-01-24T03:51:48.736Z,14.60
2019-01-24T03:52:48.717Z,16.10
2019-01-24T03:53:48.725Z,14.90
2019-01-24T03:54:48.681Z,14.50
2019-01-24T03:55:48.674Z,15.70
2019-01-24T03:56:48.665Z,15.10
2019-01-24T03:57:48.650Z,15.30
2019-01-24T03:58:48.655Z,15.30
2019-01-24T03:59:48.663Z,15.50
2019-01-24T04:00:48.664Z,15.30
2019-01-24T04:01:48.616Z,15.20
2019-01-24T04:02:48.609Z,16.00
2019-01-24T04:03:48.608Z,15.00
2019-01-24T04:04:48.594Z,15.60
2019-01-24T04:05:48.570Z,15.80
2019-01-24T04:06:48.607Z,15.60
2019-01-24T04:07:48.550Z,15.10
2019-01-24T04:08:48.545Z,15.90
2019-01-24T04:09:48.550Z,15.30
2019-01-24T04:10:48.537Z,15.00
2019-01-24T04:11:48.508Z,15.40
2019-01-24T04:12:48.499Z,15.10
2019-01-24T04:13:48.490Z,15.60
2019-01-24T04:14:48.483Z,15.70
2019-01-24T04:15:48.490Z,16.50
2019-01-24T04:16:48.465Z,15.70
2019-01-24T04:17:48.479Z,16.80
2019-01-24T04:18:48.437Z,16.40
2019-01-24T04:19:48.425Z,16.80
2019-01-24T04:20:48.414Z,15.20
2019-01-24T04:21:48.396Z,15.00
2019-01-24T04:22:48.399Z,16.50
2019-01-24T04:23:48.420Z,15.70
2019-01-24T04:24:48.393Z,15.80
2019-01-24T04:25:48.357Z,17.30
2019-01-24T04:26:48.360Z,16.70
2019-01-24T04:27:48.344Z,15.60
2019-01-24T04:28:48.314Z,16.50
2019-01-24T04:29:48.612Z,15.70
2019-01-24T04:30:48.317Z,15.90
2019-01-24T04:31:48.342Z,15.10
2019-01-24T04:32:48.281Z,15.80
2019-01-24T04:33:48.270Z,17.30
2019-01-24T04:34:48.270Z,15.60
2019-01-24T04:35:48.277Z,16.20
2019-01-24T04:36:48.265Z,16.10
2019-01-24T04:37:48.239Z,16.90
2019-01-24T04:38:48.208Z,16.40
2019-01-24T04:39:48.213Z,17.10
2019-01-24T04:40:48.218Z,16.80
2019-01-24T04:41:48.186Z,16.10
2019-01-24T04:42:48.202Z,16.00
2019-01-24T04:43:48.169Z,17.90
2019-01-24T04:44:48.157Z,16.80
2019-01-24T04:45:48.175Z,17.10
2019-01-24T04:46:48.126Z,16.80
2019-01-24T04:47:48.127Z,15.00
2019-01-24T04:48:48.116Z,16.60
2019-01-24T04:49:48.107Z,16.80
2019-01-24T04:50:48.082Z,15.10
2019-01-24T04:51:48.107Z,15.80
2019-01-24T04:52:48.064Z,14.90
2019-01-24T04:53:48.057Z,15.70
2019-01-24T04:54:48.051Z,16.80
2019-01-24T04:55:48.042Z,15.60
2019-01-24T04:56:48.027Z,16.80
2019-01-24T04:57:48.043Z,15.30
2019-01-24T04:58:48.005Z,15.80
2019-01-24T04:59:47.993Z,15.90
2019-01-24T05:00:47.978Z,16.70
2019-01-24T05:01:47.979Z,16.20
2019-01-24T05:02:47.988Z,16.90
2019-01-24T05:03:47.963Z,16.40
2019-01-24T05:04:48.000Z,16.80
2019-01-24T05:05:47.931Z,15.40
2019-01-24T05:06:47.921Z,15.60
2019-01-24T05:07:47.938Z,16.70
2019-01-24T05:08:48.522Z,16.40
2019-01-24T05:09:47.906Z,16.90
2019-01-24T05:10:47.879Z,16.40
2019-01-24T05:11:47.863Z,17.10
2019-01-24T05:12:47.867Z,15.90
2019-01-24T05:13:48.599Z,18.00
2019-01-24T05:14:47.840Z,14.90
2019-01-24T05:15:47.839Z,16.00
2019-01-24T05:16:47.822Z,16.20
2019-01-24T05:17:47.814Z,15.80
2019-01-24T05:18:47.794Z,16.10
2019-01-24T05:19:47.798Z,15.10
2019-01-24T05:20:47.780Z,15.90
2019-01-24T05:21:47.776Z,15.90
2019-01-24T05:22:47.773Z,16.10
2019-01-24T05:23:47.785Z,17.20
2019-01-24T05:24:47.723Z,16.70
2019-01-24T05:25:47.716Z,16.90
2019-01-24T05:26:47.715Z,16.90
2019-01-24T05:27:47.701Z,17.60
2019-01-24T05:28:47.701Z,17.10
2019-01-24T05:29:47.721Z,16.90
2019-01-24T05:30:47.667Z,15.90
2019-01-24T05:31:47.667Z,16.10
2019-01-24T05:32:47.641Z,16.10
2019-01-24T05:33:47.643Z,15.90
2019-01-24T05:34:47.634Z,17.40
2019-01-24T05:35:47.680Z,15.60
2019-01-24T05:36:47.597Z,15.70
2019-01-24T05:37:47.601Z,15.80
2019-01-24T05:38:47.588Z,17.50
2019-01-24T05:39:47.599Z,17.10
2019-01-24T05:40:47.584Z,15.50
2019-01-24T05:41:47.567Z,15.40
2019-01-24T05:42:47.538Z,16.00
2019-01-24T05:43:47.526Z,15.80
2019-01-24T05:44:47.543Z,16.00
2019-01-24T05:45:47.527Z,16.20
2019-01-24T05:46:47.498Z,16.00
2019-01-24T05:47:47.483Z,16.70
2019-01-24T05:48:47.480Z,16.40
2019-01-24T05:49:47.480Z,15.90
2019-01-24T05:50:47.478Z,15.80
2019-01-24T05:51:47.457Z,16.20
2019-01-24T05:52:47.433Z,15.30
2019-01-24T05:53:47.418Z,15.10
2019-01-24T05:54:47.431Z,15.40
2019-01-24T05:55:47.397Z,15.30
2019-01-24T05:56:47.405Z,15.80
2019-01-24T05:57:47.368Z,14.90
2019-01-24T05:58:47.373Z,16.20
2019-01-24T05:59:47.356Z,15.70
2019-01-24T06:00:47.350Z,14.90
2019-01-24T06:01:47.342Z,15.70
2019-01-24T06:02:47.335Z,15.20
2019-01-24T06:03:47.350Z,14.40
2019-01-24T06:04:47.300Z,16.10
2019-01-24T06:05:47.287Z,16.70
2019-01-24T06:06:47.291Z,15.20
2019-01-24T06:07:47.299Z,14.90
2019-01-24T06:08:47.277Z,15.10
2019-01-24T06:09:47.276Z,15.50
2019-01-24T06:10:47.249Z,14.70
2019-01-24T06:11:47.239Z,16.60
2019-01-24T06:12:47.242Z,16.00
2019-01-24T06:13:47.213Z,15.80
2019-01-24T06:14:47.207Z,14.90
2019-01-24T06:15:47.203Z,15.60
2019-01-24T06:16:47.199Z,14.90
2019-01-24T06:17:47.170Z,16.50
2019-01-24T06:18:47.177Z,14.90
2019-01-24T06:19:47.152Z,15.40
2019-01-24T06:20:47.183Z,16.10
2019-01-24T06:21:47.130Z,15.40
2019-01-24T06:22:47.133Z,14.80
2019-01-24T06:23:47.102Z,15.50
2019-01-24T06:24:47.101Z,16.20
2019-01-24T06:25:47.089Z,16.40
2019-01-24T06:26:47.070Z,15.70
2019-01-24T06:27:47.048Z,15.70
2019-01-24T06:28:47.064Z,16.10
2019-01-24T06:29:47.048Z,16.20
2019-01-24T06:30:47.043Z,16.80
2019-01-24T06:31:47.018Z,16.10
2019-01-24T06:32:47.027Z,15.50
2019-01-24T06:33:47.028Z,16.30
2019-01-24T06:34:46.981Z,14.50
2019-01-24T06:35:48.847Z,14.70
2019-01-24T06:36:46.973Z,15.40
2019-01-24T06:37:46.951Z,14.00
2019-01-24T06:38:46.943Z,14.10
2019-01-24T06:39:46.953Z,14.30
2019-01-24T06:40:46.919Z,14.80
2019-01-24T06:41:46.905Z,14.20
2019-01-24T06:42:46.901Z,14.00
2019-01-24T06:43:46.893Z,14.70
2019-01-24T06:44:46.897Z,15.20
2019-01-24T06:45:46.866Z,14.10
2019-01-24T06:46:46.856Z,15.00
2019-01-24T06:47:46.843Z,14.40
2019-01-24T06:48:46.854Z,13.80
2019-01-24T06:49:46.831Z,15.40
2019-01-24T06:50:46.838Z,14.40
2019-01-24T06:51:46.803Z,13.90
2019-01-24T06:52:46.799Z,14.50
2019-01-24T06:53:46.811Z,13.70
2019-01-24T06:54:46.759Z,14.10
2019-01-24T06:55:46.760Z,13.60
2019-01-24T06:56:46.747Z,14.40
2019-01-24T06:57:46.795Z,13.70
2019-01-24T06:58:46.726Z,13.70
2019-01-24T06:59:46.725Z,13.50
2019-01-24T07:00:46.697Z,14.70
2019-01-24T07:01:46.696Z,14.10
2019-01-24T07:02:46.697Z,13.50
2019-01-24T07:03:46.697Z,13.90
2019-01-24T07:04:46.663Z,14.20
2019-01-24T07:05:46.720Z,13.70
2019-01-24T07:06:46.637Z,14.80
2019-01-24T07:07:46.635Z,13.10
2019-01-24T07:08:46.680Z,13.20
2019-01-24T07:09:46.612Z,14.60
2019-01-24T07:10:46.613Z,14.10
2019-01-24T07:11:46.664Z,13.50
2019-01-24T07:12:46.580Z,13.20
2019-01-24T07:13:46.568Z,13.70
2019-01-24T07:14:46.584Z,13.10
2019-01-24T07:15:46.560Z,13.00
2019-01-24T07:16:46.553Z,14.00
2019-01-24T07:17:46.576Z,13.30
2019-01-24T07:18:46.507Z,13.40
2019-01-24T07:19:46.523Z,14.50
2019-01-24T07:20:47.092Z,13.80
2019-01-24T07:21:46.472Z,14.30
2019-01-24T07:22:47.070Z,13.50
2019-01-24T07:23:46.511Z,13.50
2019-01-24T07:24:46.450Z,12.10
2019-01-24T07:25:46.450Z,13.10
2019-01-24T07:26:46.437Z,13.40
2019-01-24T07:27:46.404Z,13.40
2019-01-24T07:28:46.405Z,12.40
2019-01-24T07:29:46.459Z,13.80
2019-01-24T07:30:46.380Z,13.00
2019-01-24T07:31:46.366Z,13.40
2019-01-24T07:32:46.360Z,13.10
2019-01-24T07:33:46.345Z,12.30
2019-01-24T07:34:46.341Z,12.20
2019-01-24T07:35:46.352Z,12.30
2019-01-24T07:36:46.328Z,13.60
2019-01-24T07:37:46.347Z,12.70
2019-01-24T07:38:46.292Z,12.40
2019-01-24T07:39:46.296Z,12.10
2019-01-24T07:40:46.299Z,11.40
2019-01-24T07:41:46.264Z,11.80
2019-01-24T07:42:46.268Z,11.80
2019-01-24T07:43:46.249Z,12.30
2019-01-24T07:44:46.248Z,11.10
2019-01-24T07:45:46.218Z,12.50
2019-01-24T07:46:46.222Z,11.90
2019-01-24T07:47:46.235Z,12.60
2019-01-24T07:48:46.242Z,12.50
2019-01-24T07:49:46.197Z,12.60
2019-01-24T07:50:46.180Z,12.60
2019-01-24T07:51:46.160Z,12.60
2019-01-24T07:52:46.168Z,12.40
2019-01-24T07:53:46.136Z,12.50
2019-01-24T07:54:46.141Z,13.00
2019-01-24T07:55:46.122Z,12.00
2019-01-24T07:56:46.123Z,11.80
2019-01-24T07:57:46.124Z,12.90
2019-01-24T07:58:46.081Z,12.20
2019-01-24T07:59:46.083Z,12.20
2019-01-24T08:00:46.077Z,12.90
2019-01-24T08:01:46.062Z,12.60
2019-01-24T08:02:46.047Z,12.80
2019-01-24T08:03:46.026Z,13.10
2019-01-24T08:04:46.022Z,13.80
2019-01-24T08:05:46.005Z,12.40
2019-01-24T08:06:45.999Z,13.80
2019-01-24T08:07:46.162Z,13.60
2019-01-24T08:08:45.987Z,13.90
2019-01-24T08:09:45.969Z,14.00
2019-01-24T08:10:45.975Z,12.80
2019-01-24T08:11:46.010Z,13.70
2019-01-24T08:12:45.959Z,12.60
2019-01-24T08:13:45.957Z,13.40
2019-01-24T08:14:45.931Z,12.90
2019-01-24T08:15:45.926Z,13.00
2019-01-24T08:16:45.913Z,13.40
2019-01-24T08:17:45.903Z,13.20
2019-01-24T08:18:45.900Z,13.20
2019-01-24T08:19:45.886Z,10.80
2019-01-24T08:20:45.890Z,12.30
2019-01-24T08:21:45.875Z,12.80
2019-01-24T08:22:45.869Z,12.20
2019-01-24T08:23:45.830Z,13.10
2019-01-24T08:24:45.803Z,12.00
2019-01-24T08:25:45.799Z,12.90
2019-01-24T08:26:45.796Z,13.30
2019-01-24T08:27:45.841Z,12.20
2019-01-24T08:28:45.774Z,12.50
2019-01-24T08:29:45.764Z,11.80
2019-01-24T08:30:45.742Z,10.80
2019-01-24T08:31:46.137Z,13.00
2019-01-24T08:32:45.730Z,12.10
2019-01-24T08:33:45.761Z,12.80
2019-01-24T08:34:45.700Z,11.60
2019-01-24T08:35:45.722Z,11.80
2019-01-24T08:36:45.684Z,11.60
2019-01-24T08:37:45.660Z,11.30
2019-01-24T08:38:45.663Z,11.20
2019-01-24T08:39:45.658Z,11.70
2019-01-24T08:40:45.646Z,11.90
2019-01-24T08:41:45.668Z,10.90
2019-01-24T08:42:45.620Z,13.00
2019-01-24T08:43:45.625Z,11.60
2019-01-24T08:44:45.597Z,12.50
2019-01-24T08:45:45.603Z,11.30
2019-01-24T08:46:45.585Z,11.00
2019-01-24T08:47:45.567Z,11.00
2019-01-24T08:48:45.571Z,12.40
2019-01-24T08:49:45.546Z,11.50
2019-01-24T08:50:45.534Z,10.90
2019-01-24T08:51:45.530Z,11.30
2019-01-24T08:52:45.512Z,11.70
2019-01-24T08:53:45.554Z,11.40
2019-01-24T08:54:45.489Z,11.30
2019-01-24T08:55:45.469Z,10.90
2019-01-24T08:56:45.474Z,11.00
2019-01-24T08:57:45.471Z,11.40
2019-01-24T08:58:45.453Z,10.40
2019-01-24T08:59:45.462Z,11.60
2019-01-24T09:00:45.436Z,12.30
2019-01-24T09:01:45.427Z,10.40
2019-01-24T09:02:45.410Z,12.40
2019-01-24T09:03:45.414Z,12.40
2019-01-24T09:04:45.393Z,12.00
2019-01-24T09:05:45.383Z,11.60
2019-01-24T09:06:45.355Z,12.20
2019-01-24T09:07:45.363Z,12.30
2019-01-24T09:08:45.351Z,11.20
2019-01-24T09:09:45.346Z,11.70
2019-01-24T09:10:45.348Z,11.60
2019-01-24T09:11:45.312Z,12.40
2019-01-24T09:12:45.320Z,11.30
2019-01-24T09:13:45.289Z,10.80
2019-01-24T09:14:45.292Z,11.60
2019-01-24T09:15:45.261Z,11.60
2019-01-24T09:16:45.266Z,11.70
2019-01-24T09:17:45.228Z,10.30
2019-01-24T09:18:45.230Z,11.00
2019-01-24T09:19:45.227Z,10.90
2019-01-24T09:20:45.206Z,11.30
2019-01-24T09:21:45.226Z,12.30
2019-01-24T09:22:45.198Z,11.50
2019-01-24T09:23:45.220Z,11.90
2019-01-24T09:24:45.172Z,10.70
2019-01-24T09:25:45.173Z,11.40
2019-01-24T09:26:45.149Z,11.10
2019-01-24T09:27:45.157Z,10.80
2019-01-24T09:28:45.133Z,11.80
2019-01-24T09:29:45.115Z,12.60
2019-01-24T09:30:45.109Z,11.50
2019-01-24T09:31:45.100Z,11.40
2019-01-24T09:32:45.105Z,10.50
2019-01-24T09:33:45.081Z,10.70
2019-01-24T09:34:45.067Z,10.80
2019-01-24T09:35:45.046Z,11.70
2019-01-24T09:36:45.076Z,10.70
2019-01-24T09:37:45.045Z,11.30
2019-01-24T09:38:45.011Z,11.40
2019-01-24T09:39:45.002Z,10.50
2019-01-24T09:40:44.988Z,10.40
2019-01-24T09:41:44.982Z,11.40
2019-01-24T09:42:45.148Z,9.70
2019-01-24T09:43:44.965Z,11.00
2019-01-24T09:44:44.970Z,11.10
2019-01-24T09:45:44.977Z,11.00
2019-01-24T09:46:44.929Z,10.40
2019-01-24T09:47:44.928Z,12.00
2019-01-24T09:48:44.914Z,11.20
2019-01-24T09:49:44.917Z,11.00
2019-01-24T09:50:44.905Z,10.20
2019-01-24T09:51:44.883Z,11.70
2019-01-24T09:52:44.877Z,11.50
2019-01-24T09:53:44.881Z,10.70
2019-01-24T09:54:44.858Z,12.30
2019-01-24T09:55:44.853Z,11.40
2019-01-24T09:56:44.876Z,10.80
2019-01-24T09:57:44.820Z,11.60
2019-01-24T09:58:44.824Z,11.20
2019-01-24T09:59:44.781Z,11.20
2019-01-24T10:00:44.777Z,12.30
2019-01-24T10:01:44.773Z,11.40
2019-01-24T10:02:44.763Z,11.90
2019-01-24T10:03:44.751Z,12.30
2019-01-24T10:04:44.778Z,10.50
2019-01-24T10:05:44.728Z,12.10
2019-01-24T10:06:44.725Z,12.50
2019-01-24T10:07:44.704Z,11.60
2019-01-24T10:08:44.701Z,11.20
2019-01-24T10:09:44.729Z,12.40
2019-01-24T10:10:44.695Z,11.20
2019-01-24T10:11:44.656Z,11.30
2019-01-24T10:12:44.649Z,12.70
2019-01-24T10:13:44.651Z,12.20
2019-01-24T10:14:44.650Z,12.30
2019-01-24T10:15:44.657Z,13.60
2019-01-24T10:16:44.630Z,13.50
2019-01-24T10:17:44.605Z,12.50
2019-01-24T10:18:44.597Z,12.40
2019-01-24T10:19:44.591Z,12.80
2019-01-24T10:20:44.562Z,13.60
2019-01-24T10:21:44.569Z,14.10
2019-01-24T10:22:44.557Z,14.30
2019-01-24T10:23:44.543Z,12.90
2019-01-24T10:24:44.526Z,12.20
2019-01-24T10:25:44.520Z,14.00
2019-01-24T10:26:44.528Z,12.70
2019-01-24T10:27:44.514Z,13.30
2019-01-24T10:28:44.500Z,13.00
2019-01-24T10:29:44.486Z,12.80
2019-01-24T10:30:44.458Z,12.10
2019-01-24T10:31:44.445Z,12.50
2019-01-24T10:32:44.455Z,13.50
2019-01-24T10:33:44.450Z,13.40
2019-01-24T10:34:44.439Z,13.00
2019-01-24T10:35:44.410Z,13.40
2019-01-24T10:36:44.435Z,12.80
2019-01-24T10:37:44.401Z,12.60
2019-01-24T10:38:44.372Z,13.20
2019-01-24T10:39:44.376Z,13.50
2019-01-24T10:40:44.380Z,12.20
2019-01-24T10:41:44.355Z,12.60
2019-01-24T10:42:44.341Z,12.10
2019-01-24T10:43:44.337Z,12.80
2019-01-24T10:44:44.310Z,12.60
2019-01-24T10:45:44.293Z,12.00
2019-01-24T10:46:44.295Z,11.80
2019-01-24T10:47:44.333Z,11.80
2019-01-24T10:48:44.283Z,12.80
2019-01-24T10:49:44.267Z,12.70
2019-01-24T10:50:44.282Z,12.50
2019-01-24T10:51:44.236Z,12.50
2019-01-24T10:52:44.222Z,12.80
2019-01-24T10:53:44.221Z,13.30
2019-01-24T10:54:44.209Z,11.60
2019-01-24T10:55:44.215Z,12.80
2019-01-24T10:56:44.220Z,12.40
2019-01-24T10:57:44.163Z,11.70
2019-01-24T10:58:44.210Z,12.40
2019-01-24T10:59:44.169Z,11.80
2019-01-24T11:00:44.146Z,12.40
2019-01-24T11:01:44.143Z,12.10
2019-01-24T11:02:44.167Z,11.80
2019-01-24T11:03:44.121Z,12.70
2019-01-24T11:04:44.105Z,12.60
2019-01-24T11:05:44.085Z,12.40
2019-01-24T11:06:49.862Z,12.30
2019-01-24T11:07:45.103Z,12.50
2019-01-24T11:08:44.065Z,12.40
2019-01-24T11:09:44.059Z,12.60
2019-01-24T11:10:44.030Z,11.50
2019-01-24T11:11:44.030Z,12.20
2019-01-24T11:12:44.022Z,11.80
2019-01-24T11:13:44.031Z,13.10
2019-01-24T11:14:44.012Z,11.80
2019-01-24T11:15:43.984Z,13.00
2019-01-24T11:16:43.967Z,13.40
2019-01-24T11:17:43.955Z,12.70
2019-01-24T11:18:43.974Z,12.60
2019-01-24T11:19:43.970Z,13.20
2019-01-24T11:20:43.931Z,12.90
2019-01-24T11:21:43.933Z,13.90
2019-01-24T11:22:43.900Z,12.60
2019-01-24T11:23:43.896Z,13.50
2019-01-24T11:24:43.925Z,12.40
2019-01-24T11:25:43.872Z,13.90
2019-01-24T11:26:43.873Z,13.00
2019-01-24T11:27:43.869Z,13.00
2019-01-24T11:28:43.841Z,12.80
2019-01-24T11:29:43.829Z,13.40
2019-01-24T11:30:43.848Z,13.40
2019-01-24T11:31:43.815Z,13.20
2019-01-24T11:32:43.814Z,12.80
2019-01-24T11:33:43.809Z,15.70
2019-01-24T11:34:43.778Z,13.30
2019-01-24T11:35:43.789Z,13.40
2019-01-24T11:36:43.760Z,14.00
2019-01-24T11:37:43.743Z,13.50
2019-01-24T11:38:43.740Z,13.20
2019-01-24T11:39:43.732Z,13.90
2019-01-24T11:40:43.743Z,13.70
2019-01-24T11:41:43.730Z,15.70
2019-01-24T11:42:43.698Z,13.60
2019-01-24T11:43:43.682Z,15.20
2019-01-24T11:44:43.679Z,14.10
2019-01-24T11:45:43.665Z,13.40
2019-01-24T11:46:43.670Z,15.70
2019-01-24T11:47:43.631Z,14.70
2019-01-24T11:48:43.660Z,14.40
2019-01-24T11:49:43.619Z,14.90
2019-01-24T11:50:43.628Z,13.90
2019-01-24T11:51:43.620Z,14.70
2019-01-24T11:52:43.595Z,14.50
2019-01-24T11:53:43.603Z,15.40
2019-01-24T11:54:43.557Z,15.00
2019-01-24T11:55:43.555Z,16.60
2019-01-24T11:56:43.534Z,14.50
2019-01-24T11:57:43.528Z,14.40
2019-01-24T11:58:43.554Z,15.60
2019-01-24T11:59:43.513Z,14.70
2019-01-24T12:00:43.493Z,15.30
2019-01-24T12:01:43.500Z,15.10
2019-01-24T12:02:43.492Z,15.20
2019-01-24T12:03:43.478Z,14.80
2019-01-24T12:04:43.495Z,15.80
2019-01-24T12:05:43.453Z,16.90
2019-01-24T12:06:43.444Z,14.60
2019-01-24T12:07:43.425Z,15.70
2019-01-24T12:08:43.407Z,15.70
2019-01-24T12:09:43.406Z,15.70
2019-01-24T12:10:43.420Z,17.50
2019-01-24T12:11:43.421Z,16.80
2019-01-24T12:12:43.371Z,16.60
2019-01-24T12:13:43.380Z,16.30
2019-01-24T12:14:43.343Z,17.20
2019-01-24T12:15:43.359Z,16.40
2019-01-24T12:16:43.339Z,17.90
2019-01-24T12:17:43.332Z,17.50
2019-01-24T12:18:43.303Z,17.20
2019-01-24T12:19:43.298Z,19.10
2019-01-24T12:20:43.314Z,17.90
2019-01-24T12:21:43.282Z,18.50
2019-01-24T12:22:43.271Z,17.70
2019-01-24T12:23:43.260Z,18.40
2019-01-24T12:24:43.250Z,19.20
2019-01-24T12:25:43.252Z,18.70
2019-01-24T12:26:43.257Z,18.10
2019-01-24T12:27:43.211Z,19.40
2019-01-24T12:28:43.198Z,19.80
2019-01-24T12:29:43.196Z,19.70
2019-01-24T12:30:43.187Z,18.90
2019-01-24T12:31:43.176Z,20.50
2019-01-24T12:32:43.191Z,18.30
2019-01-24T12:33:43.200Z,18.00
2019-01-24T12:34:43.146Z,18.30
2019-01-24T12:35:43.152Z,20.10
2019-01-24T12:36:43.133Z,18.10
2019-01-24T12:37:43.140Z,19.00
2019-01-24T12:38:43.095Z,18.30
2019-01-24T12:39:43.086Z,18.70
2019-01-24T12:40:43.074Z,19.80
2019-01-24T12:41:43.062Z,20.40
2019-01-24T12:42:43.058Z,18.80
2019-01-24T12:43:43.071Z,19.60
2019-01-24T12:44:43.038Z,19.50
2019-01-24T12:45:43.041Z,20.00
2019-01-24T12:46:43.013Z,20.00
2019-01-24T12:47:43.012Z,19.80
2019-01-24T12:48:43.021Z,20.00
2019-01-24T12:49:42.988Z,20.50
2019-01-24T12:50:43.559Z,19.60
2019-01-24T12:51:42.984Z,19.10
2019-01-24T12:52:42.941Z,19.20